createdAt,value
2019-03-30T00:01:56.760Z,8.37
2019-03-30T00:04:24.291Z,8.38
2019-03-30T00:06:51.769Z,8.35
2019-03-30T00:09:19.272Z,8.34
2019-03-30T00:11:46.801Z,8.29
2019-03-30T00:14:14.321Z,8.24
2019-03-30T00:16:41.786Z,8.16
2019-03-30T00:19:09.301Z,8.19
2019-03-30T00:21:36.792Z,8.12
2019-03-30T00:24:04.326Z,8.12
2019-03-30T00:26:31.808Z,8.13
2019-03-30T00:28:59.317Z,8.11
2019-03-30T00:31:26.826Z,8.11
2019-03-30T00:33:54.350Z,8.00
2019-03-30T00:36:21.818Z,7.95
2019-03-30T00:38:49.342Z,7.90
2019-03-30T00:41:16.823Z,7.96
2019-03-30T00:43:44.342Z,7.89
2019-03-30T00:46:11.827Z,7.88
2019-03-30T00:48:39.334Z,7.87
2019-03-30T00:51:06.807Z,7.74
2019-03-30T00:53:34.333Z,7.79
2019-03-30T00:56:01.840Z,7.75
2019-03-30T00:58:29.349Z,7.76
2019-03-30T01:00:56.832Z,7.73
2019-03-30T01:03:24.366Z,7.61
2019-03-30T01:05:51.871Z,7.68
2019-03-30T01:08:19.360Z,7.76
2019-03-30T01:10:47.176Z,7.74
2019-03-30T01:13:14.767Z,7.69
2019-03-30T01:15:42.282Z,7.73
2019-03-30T01:18:09.867Z,7.73
2019-03-30T01:20:37.374Z,7.71
2019-03-30T01:23:04.908Z,7.80
2019-03-30T01:25:32.410Z,7.84
2019-03-30T01:27:59.899Z,7.85
2019-03-30T01:30:27.531Z,7.78
2019-03-30T01:32:55.020Z,7.89
2019-03-30T01:35:22.682Z,7.83
2019-03-30T01:37:50.377Z,7.79
2019-03-30T01:40:18.180Z,7.69
2019-03-30T01:42:45.670Z,7.68
2019-03-30T01:45:13.171Z,7.78
2019-03-30T01:47:40.636Z,7.69
2019-03-30T01:50:17.267Z,7.73
2019-03-30T01:52:38.337Z,7.49
2019-03-30T01:55:06.176Z,7.48
2019-03-30T01:57:33.723Z,7.43
2019-03-30T02:00:01.273Z,7.55
2019-03-30T02:02:28.851Z,7.58
2019-03-30T02:04:56.442Z,7.51
2019-03-30T02:07:23.899Z,7.42
2019-03-30T02:09:51.425Z,7.56
2019-03-30T02:12:18.923Z,7.49
2019-03-30T02:14:46.444Z,7.44
2019-03-30T02:17:13.944Z,7.42
2019-03-30T02:19:41.700Z,7.37
2019-03-30T02:22:09.261Z,7.34
2019-03-30T02:24:36.809Z,7.28
2019-03-30T02:27:04.339Z,7.23
2019-03-30T02:29:31.853Z,7.15
2019-03-30T02:31:59.357Z,7.06
2019-03-30T02:34:26.927Z,6.99
2019-03-30T02:36:54.426Z,6.96
2019-03-30T02:39:21.945Z,6.91
2019-03-30T02:41:49.475Z,6.89
2019-03-30T02:44:17.013Z,6.91
2019-03-30T02:46:44.541Z,6.86
2019-03-30T02:49:12.043Z,6.85
2019-03-30T02:51:39.583Z,6.65
2019-03-30T02:54:07.062Z,6.72
2019-03-30T02:56:34.629Z,6.60
2019-03-30T02:59:02.278Z,6.58
2019-03-30T03:01:29.816Z,6.37
2019-03-30T03:03:57.345Z,6.31
2019-03-30T03:06:24.854Z,6.36
2019-03-30T03:08:52.365Z,6.36
2019-03-30T03:11:19.859Z,6.21
2019-03-30T03:13:47.338Z,6.19
2019-03-30T03:16:14.878Z,6.18
2019-03-30T03:18:42.397Z,6.12
2019-03-30T03:21:09.896Z,6.13
2019-03-30T03:23:37.389Z,6.09
2019-03-30T03:26:04.970Z,6.10
2019-03-30T03:28:32.431Z,6.06
2019-03-30T03:30:59.923Z,5.96
2019-03-30T03:33:27.385Z,5.82
2019-03-30T03:35:54.875Z,5.74
2019-03-30T03:38:22.340Z,5.88
2019-03-30T03:40:50.406Z,5.95
2019-03-30T03:43:17.939Z,5.80
2019-03-30T03:45:45.557Z,5.69
2019-03-30T03:48:13.044Z,5.80
2019-03-30T03:50:52.628Z,5.72
2019-03-30T03:53:20.133Z,5.67
2019-03-30T03:55:47.753Z,5.61
2019-03-30T03:58:16.558Z,5.59
2019-03-30T04:00:44.887Z,5.54
2019-03-30T04:03:16.812Z,5.58
2019-03-30T04:05:45.660Z,5.60
2019-03-30T04:08:13.177Z,5.51
2019-03-30T04:10:42.863Z,5.62
2019-03-30T04:13:13.208Z,5.45
2019-03-30T04:15:40.715Z,5.36
2019-03-30T04:18:08.179Z,5.40
2019-03-30T04:20:36.053Z,5.28
2019-03-30T04:23:03.559Z,5.27
2019-03-30T04:25:31.018Z,5.30
2019-03-30T04:27:58.550Z,5.17
2019-03-30T04:30:26.107Z,5.20
2019-03-30T04:32:53.670Z,5.15
2019-03-30T04:35:21.168Z,5.04
2019-03-30T04:37:48.695Z,5.10
2019-03-30T04:40:16.188Z,5.15
2019-03-30T04:42:43.695Z,5.18
2019-03-30T04:45:11.215Z,4.95
2019-03-30T04:47:38.731Z,4.92
2019-03-30T04:50:06.657Z,4.92
2019-03-30T04:52:34.171Z,4.98
2019-03-30T04:55:01.675Z,4.90
2019-03-30T04:57:29.249Z,4.91
2019-03-30T04:59:56.714Z,5.01
2019-03-30T05:02:24.231Z,5.00
2019-03-30T05:04:51.758Z,5.06
2019-03-30T05:07:19.250Z,4.89
2019-03-30T05:09:48.263Z,4.89
2019-03-30T05:12:15.859Z,4.94
2019-03-30T05:14:43.409Z,4.96
2019-03-30T05:17:10.887Z,4.92
2019-03-30T05:19:38.438Z,5.02
2019-03-30T05:22:12.652Z,4.93
2019-03-30T05:24:35.282Z,5.00
2019-03-30T05:27:02.800Z,5.09
2019-03-30T05:29:30.280Z,4.91
2019-03-30T05:31:57.785Z,4.90
2019-03-30T05:34:25.266Z,4.91
2019-03-30T05:36:52.778Z,4.88
2019-03-30T05:39:20.239Z,5.00
2019-03-30T05:41:47.740Z,4.97
2019-03-30T05:44:15.215Z,4.96
2019-03-30T05:46:42.744Z,5.07
2019-03-30T05:49:10.237Z,5.15
2019-03-30T05:51:37.754Z,5.14
2019-03-30T05:54:05.274Z,5.14
2019-03-30T05:56:32.792Z,5.19
2019-03-30T05:59:00.384Z,5.13
2019-03-30T06:01:27.884Z,5.23
2019-03-30T06:03:55.390Z,5.30
2019-03-30T06:06:22.870Z,5.39
2019-03-30T06:08:50.377Z,5.41
2019-03-30T06:11:17.917Z,5.47
2019-03-30T06:13:45.587Z,5.58
2019-03-30T06:16:13.079Z,5.61
2019-03-30T06:18:40.616Z,5.81
2019-03-30T06:21:08.146Z,5.83
2019-03-30T06:23:35.633Z,6.01
2019-03-30T06:26:03.108Z,6.14
2019-03-30T06:28:30.663Z,6.35
2019-03-30T06:30:58.148Z,6.30
2019-03-30T06:33:25.666Z,6.38
2019-03-30T06:35:53.163Z,6.61
2019-03-30T06:38:20.645Z,6.79
2019-03-30T06:40:48.120Z,6.96
2019-03-30T06:43:15.706Z,7.25
2019-03-30T06:45:43.201Z,7.36
2019-03-30T06:48:10.696Z,7.39
2019-03-30T06:50:38.182Z,7.40
2019-03-30T06:53:05.739Z,7.44
2019-03-30T06:55:33.233Z,7.54
2019-03-30T06:58:00.729Z,7.66
2019-03-30T07:00:32.607Z,7.73
2019-03-30T07:03:02.543Z,7.92
2019-03-30T07:05:30.623Z,8.14
2019-03-30T07:07:59.216Z,8.08
2019-03-30T07:10:26.818Z,8.27
2019-03-30T07:12:54.939Z,8.47
2019-03-30T07:15:24.134Z,8.49
2019-03-30T07:17:54.140Z,8.43
2019-03-30T07:20:30.672Z,8.63
2019-03-30T07:23:11.108Z,8.77
2019-03-30T07:25:27.703Z,8.83
2019-03-30T07:27:58.330Z,9.05
2019-03-30T07:30:27.087Z,9.26
2019-03-30T07:32:54.692Z,9.21
2019-03-30T07:35:22.183Z,9.32
2019-03-30T07:37:49.714Z,9.44
2019-03-30T07:40:17.175Z,9.49
2019-03-30T07:42:44.663Z,9.41
2019-03-30T07:45:12.387Z,9.60
2019-03-30T07:47:39.926Z,9.80
2019-03-30T07:50:07.562Z,9.92
2019-03-30T07:52:35.035Z,9.85
2019-03-30T07:55:02.544Z,9.87
2019-03-30T07:57:30.031Z,9.94
2019-03-30T07:59:57.576Z,10.15
2019-03-30T08:02:25.145Z,10.16
2019-03-30T08:04:52.643Z,10.25
2019-03-30T08:07:20.098Z,10.51
2019-03-30T08:09:47.683Z,10.76
2019-03-30T08:12:15.198Z,10.70
2019-03-30T08:14:45.110Z,10.96
2019-03-30T08:17:12.081Z,10.94
2019-03-30T08:19:39.569Z,11.13
2019-03-30T08:22:07.063Z,11.28
2019-03-30T08:24:34.583Z,11.22
2019-03-30T08:27:02.119Z,11.27
2019-03-30T08:29:29.650Z,11.53
2019-03-30T08:31:57.168Z,11.66
2019-03-30T08:34:24.693Z,11.72
2019-03-30T08:36:52.186Z,11.74
2019-03-30T08:39:19.704Z,12.17
2019-03-30T08:41:47.241Z,12.20
2019-03-30T08:44:14.737Z,12.20
2019-03-30T08:46:42.304Z,12.39
2019-03-30T08:49:09.840Z,12.66
2019-03-30T08:51:37.309Z,12.75
2019-03-30T08:54:04.837Z,12.78
2019-03-30T08:56:32.506Z,12.67
2019-03-30T08:59:00.083Z,12.86
2019-03-30T09:01:27.538Z,12.69
2019-03-30T09:03:55.024Z,12.88
2019-03-30T09:06:22.499Z,13.06
2019-03-30T09:08:49.978Z,13.02
2019-03-30T09:11:17.452Z,13.08
2019-03-30T09:13:44.948Z,13.35
2019-03-30T09:16:12.432Z,13.47
2019-03-30T09:18:39.921Z,13.65
2019-03-30T09:21:07.450Z,13.77
2019-03-30T09:23:34.937Z,13.91
2019-03-30T09:26:02.364Z,14.06
2019-03-30T09:28:29.840Z,14.47
2019-03-30T09:30:57.353Z,14.50
2019-03-30T09:33:24.842Z,14.42
2019-03-30T09:35:52.325Z,14.41
2019-03-30T09:38:19.989Z,14.67
2019-03-30T09:40:47.618Z,14.80
2019-03-30T09:43:15.231Z,15.18
2019-03-30T09:45:42.715Z,15.10
2019-03-30T09:50:50.441Z,15.17
2019-03-30T09:53:17.943Z,15.32
2019-03-30T09:55:45.506Z,15.32
2019-03-30T09:58:13.033Z,15.37
2019-03-30T10:00:40.564Z,15.49
2019-03-30T10:03:08.054Z,15.67
2019-03-30T10:05:35.572Z,15.97
2019-03-30T10:08:03.127Z,16.01
2019-03-30T10:10:30.628Z,16.19
2019-03-30T10:12:58.281Z,16.48
2019-03-30T10:15:25.811Z,16.73
2019-03-30T10:17:53.301Z,16.71
2019-03-30T10:20:20.809Z,16.93
2019-03-30T10:22:48.288Z,16.91
2019-03-30T10:25:15.859Z,16.64
2019-03-30T10:27:43.359Z,16.55
2019-03-30T10:30:11.430Z,16.78
2019-03-30T10:32:38.848Z,16.95
2019-03-30T10:35:06.736Z,17.18
2019-03-30T10:37:34.211Z,17.39
2019-03-30T10:40:01.738Z,17.34
2019-03-30T10:42:29.228Z,17.57
2019-03-30T10:44:56.759Z,17.65
2019-03-30T10:47:24.345Z,17.58
2019-03-30T10:49:52.401Z,17.53
2019-03-30T10:52:19.875Z,17.79
2019-03-30T10:54:52.937Z,18.15
2019-03-30T10:57:16.771Z,18.32
2019-03-30T10:59:44.392Z,18.24
2019-03-30T11:02:11.935Z,18.42
2019-03-30T11:04:39.471Z,18.75
2019-03-30T11:07:06.939Z,18.43
2019-03-30T11:09:35.978Z,18.49
2019-03-30T11:12:05.754Z,18.92
2019-03-30T11:14:37.121Z,18.78
2019-03-30T11:17:04.615Z,18.79
2019-03-30T11:19:32.129Z,18.54
2019-03-30T11:22:02.876Z,18.95
2019-03-30T11:24:29.005Z,18.73
2019-03-30T11:26:56.506Z,18.72
2019-03-30T11:29:23.991Z,19.16
2019-03-30T11:31:51.465Z,19.22
2019-03-30T11:34:19.001Z,19.47
2019-03-30T11:36:46.477Z,19.78
2019-03-30T11:39:13.981Z,19.87
2019-03-30T11:41:41.509Z,19.91
2019-03-30T11:44:09.007Z,19.96
2019-03-30T11:46:36.521Z,20.09
2019-03-30T11:49:04.050Z,20.20
2019-03-30T11:51:31.585Z,19.78
2019-03-30T11:53:59.088Z,19.74
2019-03-30T11:56:26.630Z,19.68
2019-03-30T11:58:54.110Z,19.50
2019-03-30T12:01:22.018Z,19.07
2019-03-30T12:03:49.622Z,19.12
2019-03-30T12:06:17.191Z,19.47
2019-03-30T12:08:44.668Z,19.28
2019-03-30T12:11:12.274Z,19.02
2019-03-30T12:13:39.731Z,19.34
2019-03-30T12:16:07.250Z,19.52
2019-03-30T12:18:34.698Z,19.53
2019-03-30T12:21:02.212Z,19.95
2019-03-30T12:23:29.711Z,20.13
2019-03-30T12:25:57.160Z,20.42
2019-03-30T12:28:24.826Z,20.68
2019-03-30T12:30:52.359Z,20.57
2019-03-30T12:33:19.829Z,20.38
2019-03-30T12:35:47.439Z,20.54
2019-03-30T12:38:14.919Z,20.17
2019-03-30T12:40:42.419Z,20.32
2019-03-30T12:43:09.920Z,20.19
2019-03-30T12:45:37.426Z,19.97
2019-03-30T12:48:04.987Z,20.36
2019-03-30T12:50:32.726Z,20.53
2019-03-30T12:53:00.949Z,20.94
2019-03-30T12:55:28.454Z,21.36
2019-03-30T12:57:55.950Z,20.99
2019-03-30T13:00:23.935Z,20.99
2019-03-30T13:02:52.029Z,21.16
2019-03-30T13:05:19.565Z,21.39
2019-03-30T13:07:47.036Z,21.39
2019-03-30T13:10:14.745Z,21.26
2019-03-30T13:12:42.207Z,21.06
2019-03-30T13:15:09.733Z,20.85
2019-03-30T13:17:37.212Z,21.16
2019-03-30T13:20:05.533Z,20.57
2019-03-30T13:22:33.069Z,20.87
2019-03-30T13:25:00.620Z,20.92
2019-03-30T13:27:28.090Z,21.14
2019-03-30T13:29:55.592Z,21.41
2019-03-30T13:32:23.194Z,22.00
2019-03-30T13:34:50.754Z,21.96
2019-03-30T13:37:19.096Z,21.87
2019-03-30T13:39:46.594Z,21.66
2019-03-30T13:42:14.097Z,21.91
2019-03-30T13:44:41.613Z,21.55
2019-03-30T13:47:09.130Z,21.68
2019-03-30T13:49:36.613Z,21.79
2019-03-30T13:52:04.126Z,21.27
2019-03-30T13:54:31.583Z,21.19
2019-03-30T13:56:59.166Z,20.91
2019-03-30T13:59:26.725Z,20.93
2019-03-30T14:01:54.272Z,21.66
2019-03-30T14:04:21.742Z,21.45
2019-03-30T14:06:49.261Z,21.34
2019-03-30T14:09:16.904Z,21.45
2019-03-30T14:11:44.396Z,21.10
2019-03-30T14:14:11.856Z,21.16
2019-03-30T14:16:39.384Z,20.89
2019-03-30T14:19:06.886Z,21.10
2019-03-30T14:21:34.384Z,21.54
2019-03-30T14:24:01.898Z,21.41
2019-03-30T14:26:31.653Z,20.65
2019-03-30T14:28:58.775Z,21.08
2019-03-30T14:31:26.281Z,20.99
2019-03-30T14:33:53.770Z,21.11
2019-03-30T14:36:21.250Z,21.19
2019-03-30T14:38:48.730Z,21.22
2019-03-30T14:41:16.288Z,21.42
2019-03-30T14:43:43.774Z,21.35
2019-03-30T14:46:11.271Z,20.83
2019-03-30T14:48:38.774Z,20.58
2019-03-30T14:51:06.262Z,20.47
2019-03-30T14:53:33.735Z,20.52
2019-03-30T14:56:01.733Z,20.42
2019-03-30T14:58:29.242Z,19.92
2019-03-30T15:00:56.713Z,19.83
2019-03-30T15:03:24.178Z,19.84
2019-03-30T15:05:51.651Z,19.83
2019-03-30T15:08:19.172Z,19.75
2019-03-30T15:10:46.656Z,19.63
2019-03-30T15:13:14.190Z,19.51
2019-03-30T15:15:41.660Z,19.44
2019-03-30T15:18:09.140Z,19.46
2019-03-30T15:20:36.638Z,19.30
2019-03-30T15:23:04.131Z,19.09
2019-03-30T15:25:31.599Z,18.92
2019-03-30T15:27:59.111Z,18.92
2019-03-30T15:30:26.583Z,19.09
2019-03-30T15:32:54.062Z,19.01
2019-03-30T15:35:21.546Z,19.00
2019-03-30T15:37:49.039Z,18.97
2019-03-30T15:40:16.506Z,18.99
2019-03-30T15:42:44.000Z,18.76
2019-03-30T15:45:11.519Z,18.95
2019-03-30T15:47:38.985Z,18.98
2019-03-30T15:50:07.489Z,18.78
2019-03-30T15:52:35.048Z,18.81
2019-03-30T15:55:02.522Z,18.90
2019-03-30T15:57:30.053Z,19.01
2019-03-30T15:59:57.815Z,18.80
2019-03-30T16:02:25.306Z,18.86
2019-03-30T16:04:52.771Z,19.01
2019-03-30T16:07:20.255Z,19.13
2019-03-30T16:09:47.926Z,19.20
2019-03-30T16:12:15.467Z,19.25
2019-03-30T16:14:42.901Z,19.40
2019-03-30T16:17:10.423Z,19.10
2019-03-30T16:19:37.899Z,18.85
2019-03-30T16:22:05.507Z,18.37
2019-03-30T16:24:32.982Z,18.48
2019-03-30T16:27:00.485Z,18.51
2019-03-30T16:29:28.016Z,18.55
2019-03-30T16:31:55.523Z,18.69
2019-03-30T16:34:22.998Z,18.62
2019-03-30T16:36:50.461Z,18.68
2019-03-30T16:39:17.987Z,18.58
2019-03-30T16:41:45.465Z,18.54
2019-03-30T16:44:12.984Z,18.51
2019-03-30T16:46:40.482Z,18.29
2019-03-30T16:49:07.986Z,18.25
2019-03-30T16:51:35.476Z,17.94
2019-03-30T16:54:06.709Z,17.85
2019-03-30T16:56:34.301Z,17.78
2019-03-30T16:59:01.852Z,17.65
2019-03-30T17:01:29.311Z,17.69
2019-03-30T17:03:56.923Z,17.60
2019-03-30T17:06:24.400Z,17.63
2019-03-30T17:08:52.437Z,17.57
2019-03-30T17:11:19.966Z,17.46
2019-03-30T17:13:47.477Z,17.43
2019-03-30T17:16:14.958Z,17.45
2019-03-30T17:18:42.459Z,17.19
2019-03-30T17:21:09.943Z,17.27
2019-03-30T17:23:37.490Z,17.11
2019-03-30T17:26:04.957Z,17.04
2019-03-30T17:28:32.532Z,17.10
2019-03-30T17:31:00.030Z,16.92
2019-03-30T17:33:27.586Z,16.92
2019-03-30T17:35:55.111Z,16.89
2019-03-30T17:38:22.609Z,16.86
2019-03-30T17:40:50.085Z,16.76
2019-03-30T17:43:17.947Z,16.67
2019-03-30T17:45:45.432Z,16.65
2019-03-30T17:48:12.950Z,16.44
2019-03-30T17:50:40.517Z,16.43
2019-03-30T17:53:08.047Z,16.36
2019-03-30T17:55:35.542Z,16.28
2019-03-30T17:58:12.773Z,16.16
2019-03-30T18:00:35.191Z,15.98
2019-03-30T18:03:03.660Z,15.83
2019-03-30T18:05:33.355Z,15.73
2019-03-30T18:08:02.097Z,15.68
2019-03-30T18:10:30.018Z,15.59
2019-03-30T18:12:57.578Z,15.41
2019-03-30T18:15:25.350Z,15.47
2019-03-30T18:17:56.522Z,15.30
2019-03-30T18:20:22.709Z,15.13
2019-03-30T18:22:50.454Z,14.98
2019-03-30T18:25:18.182Z,14.95
2019-03-30T18:27:45.904Z,14.94
2019-03-30T18:30:13.894Z,14.88
2019-03-30T18:32:41.363Z,14.81
2019-03-30T18:35:08.863Z,14.73
2019-03-30T18:37:37.546Z,14.63
2019-03-30T18:40:05.666Z,14.50
2019-03-30T18:42:33.443Z,14.46
2019-03-30T18:45:02.101Z,14.40
2019-03-30T18:47:29.573Z,14.39
2019-03-30T18:49:57.078Z,14.28
2019-03-30T18:52:24.550Z,14.13
2019-03-30T18:54:52.359Z,14.12
2019-03-30T18:57:19.936Z,14.01
2019-03-30T18:59:47.435Z,13.88
2019-03-30T19:02:14.894Z,13.95
2019-03-30T19:04:42.397Z,13.87
2019-03-30T19:07:10.729Z,13.78
2019-03-30T19:09:38.289Z,13.60
2019-03-30T19:12:05.758Z,13.50
2019-03-30T19:14:33.282Z,13.30
2019-03-30T19:17:00.746Z,13.23
2019-03-30T19:19:28.253Z,13.09
2019-03-30T19:21:55.785Z,13.00
2019-03-30T19:24:23.282Z,13.09
2019-03-30T19:26:50.783Z,13.02
2019-03-30T19:29:18.290Z,13.00
2019-03-30T19:31:45.760Z,13.04
2019-03-30T19:34:13.277Z,12.93
2019-03-30T19:36:40.771Z,12.95
2019-03-30T19:39:09.240Z,12.84
2019-03-30T19:41:36.699Z,12.51
2019-03-30T19:44:04.198Z,12.45
2019-03-30T19:46:31.658Z,12.37
2019-03-30T19:48:59.145Z,12.28
2019-03-30T19:51:26.622Z,12.30
2019-03-30T19:53:54.107Z,12.28
2019-03-30T19:56:21.630Z,12.35
2019-03-30T19:58:49.109Z,12.12
2019-03-30T20:01:16.615Z,12.10
2019-03-30T20:03:44.091Z,12.14
2019-03-30T20:06:11.623Z,12.04
2019-03-30T20:08:39.082Z,11.96
2019-03-30T20:11:06.623Z,12.01
2019-03-30T20:13:34.106Z,12.04
2019-03-30T20:16:01.639Z,11.91
2019-03-30T20:18:29.126Z,11.75
2019-03-30T20:20:56.650Z,11.84
2019-03-30T20:23:24.132Z,11.96
2019-03-30T20:25:51.693Z,11.98
2019-03-30T20:28:19.180Z,11.74
2019-03-30T20:30:46.764Z,11.42
2019-03-30T20:33:14.242Z,11.35
2019-03-30T20:35:41.863Z,11.24
2019-03-30T20:38:09.349Z,11.18
2019-03-30T20:40:36.893Z,11.08
2019-03-30T20:43:04.403Z,11.16
2019-03-30T20:45:32.053Z,11.29
2019-03-30T20:47:59.524Z,11.37
2019-03-30T20:50:27.057Z,11.38
2019-03-30T20:52:54.577Z,11.26
2019-03-30T20:55:22.215Z,11.29
2019-03-30T20:57:49.711Z,11.38
2019-03-30T21:00:17.230Z,11.12
2019-03-30T21:02:44.890Z,10.91
2019-03-30T21:05:14.212Z,10.93
2019-03-30T21:07:41.981Z,10.94
2019-03-30T21:10:09.903Z,10.98
2019-03-30T21:12:37.426Z,11.13
2019-03-30T21:15:05.971Z,11.33
2019-03-30T21:17:33.493Z,11.07
2019-03-30T21:20:01.247Z,10.87
2019-03-30T21:22:28.702Z,10.83
2019-03-30T21:24:56.233Z,10.84
2019-03-30T21:27:23.702Z,10.94
2019-03-30T21:29:54.797Z,10.92
2019-03-30T21:32:20.615Z,10.91
2019-03-30T21:34:48.083Z,11.04
2019-03-30T21:37:15.618Z,10.84
2019-03-30T21:39:43.095Z,10.68
2019-03-30T21:42:10.722Z,10.65
2019-03-30T21:44:38.201Z,10.75
2019-03-30T21:47:05.735Z,10.70
2019-03-30T21:49:33.229Z,10.74
2019-03-30T21:52:01.083Z,10.71
2019-03-30T21:54:28.643Z,10.53
2019-03-30T21:56:56.143Z,10.59
2019-03-30T21:59:23.616Z,10.64
2019-03-30T22:01:51.323Z,10.53
2019-03-30T22:04:18.795Z,10.44
2019-03-30T22:06:46.475Z,10.56
2019-03-30T22:09:13.947Z,10.34
2019-03-30T22:11:41.500Z,10.38
2019-03-30T22:14:09.083Z,10.38
2019-03-30T22:16:36.610Z,10.38
2019-03-30T22:19:04.140Z,10.43
2019-03-30T22:21:31.711Z,10.36
2019-03-30T22:23:59.205Z,10.24
2019-03-30T22:26:26.701Z,10.01
2019-03-30T22:28:54.250Z,9.93
2019-03-30T22:31:21.737Z,9.99
2019-03-30T22:33:49.243Z,10.02
2019-03-30T22:36:16.731Z,9.88
2019-03-30T22:38:44.305Z,9.89
2019-03-30T22:41:11.841Z,9.96
2019-03-30T22:43:39.377Z,9.78
2019-03-30T22:46:07.759Z,9.78
2019-03-30T22:48:35.378Z,9.66
2019-03-30T22:51:02.868Z,9.64
2019-03-30T22:53:30.661Z,9.62
2019-03-30T22:55:58.422Z,9.56
2019-03-30T22:58:25.967Z,9.53
2019-03-30T23:01:11.129Z,9.38
2019-03-30T23:03:38.683Z,9.46
2019-03-30T23:06:06.241Z,9.51
2019-03-30T23:08:33.792Z,9.46
2019-03-30T23:11:01.256Z,9.41
2019-03-30T23:13:28.745Z,9.33
2019-03-30T23:15:56.474Z,9.20
2019-03-30T23:18:23.972Z,9.12
2019-03-30T23:20:51.471Z,9.17
2019-03-30T23:23:19.019Z,9.17
2019-03-30T23:25:46.493Z,9.35
2019-03-30T23:28:14.022Z,9.40
2019-03-30T23:30:53.630Z,9.34
2019-03-30T23:33:11.205Z,9.31
2019-03-30T23:35:38.681Z,9.17
2019-03-30T23:38:06.173Z,9.11
2019-03-30T23:40:33.727Z,8.95
2019-03-30T23:43:02.367Z,8.77
2019-03-30T23:45:30.118Z,8.83
2019-03-30T23:47:57.780Z,9.03
2019-03-30T23:50:25.630Z,9.03
2019-03-30T23:52:53.219Z,8.96
2019-03-30T23:55:20.999Z,8.93
2019-03-30T23:57:48.589Z,8.84
